الصفحة الرئيسية
METAR-TAF:

METAR-TAF

مطار :

مطار بن غوريون الدولي

تل أبيب / مطار بن غوريون الدولي, إسرائيل

دائرة عرض: 32-00N, خط طول: 034-54E, ارتفاع: 40 متر

مراقبة الطقس الحالي

تاريخ ووقت الإصدار 21 دقيقة قبل الساعة 00:50UTC
ريح 5 عقدة من الجنوب
درجة الحرارة 25°درجة مئوية
الرطوبة 79%
ضغط 1009 hPa
الرؤية 10 كم أو أكثر
غيوم متفرقة على ارتفاع 2500 قدم

METAR: LLBG 170050Z 19005KT 9999 SCT025 25/21 Q1009 NOSIG

زمن: 04:11 (01:11 UTC)

توقعات

تاريخ ووقت الإصدار 2ساعات و 1 دقيقة قبل الساعة 23:10UTC
التوقعات صالحة من17 الساعة 00 UTC إلى 17 الساعة 24 UTC
ريح 4 عقدة من الجنوب
الرؤية 10 كم أو أكثر
غيوم متفرقة على ارتفاع 2700 قدم
مؤقت
من 17 الساعة 00 UTC إلى 17 الساعة 05 UTC
غيوم مفككة على ارتفاع 2300 قدم
أصبح
من 17 الساعة 06 UTC إلى 17 الساعة 08 UTC
ريح 10 عقدة من الغرب
غيوم قليلة على ارتفاع 3500 قدم
أصبح
من 17 الساعة 15 UTC إلى 17 الساعة 17 UTC
ريح 3 عقدةمن اتجاهات متغيرة
غيوم متفرقة على ارتفاع 2500 قدم

TAF: LLBG 162310Z 1700/1724 17004KT 9999 SCT027 TEMPO 1700/1705 BKN023 BECMG 1706/1708 28010KT FEW035 BECMG 1715/1717 VRB03KT SCT025 TX32/1711Z TN25/1703Z

أرصاد الطقس والتوقعات من أكثر من 4000 مطار (تقارير الطقس للمطار METAR والتنبؤ بالطقس بالمطارTAF).

المحطات المتاحة هي النقط الصفراء والحمراء على الخريطة.

حرك المؤشر فوق النقطة لمعرفة اسم المحطة.

ثم انقر لمعرفة أرصاد وتوقعات الطقس.

لتغيير الخارطة: اضغط على الأزرار الخضراء مع رمز الصليب الأسود للتكبير. على الزر الأخضر مع شرطة للتصغير، أو على الأسهم الخضراء للخرائط المجاورة.


METAR-TAF: